sensor_id;sensor_type;location;lat;lon;timestamp;temperature;humidity
48946;DHT22;34999;50.940;3.998;2023-04-24T00:00:03;9.60;99.90
48946;DHT22;34999;50.940;3.998;2023-04-24T00:02:33;9.60;99.90
48946;DHT22;34999;50.940;3.998;2023-04-24T00:05:02;9.60;99.90
48946;DHT22;34999;50.940;3.998;2023-04-24T00:07:31;9.60;99.90
48946;DHT22;34999;50.940;3.998;2023-04-24T00:09:59;9.60;99.90
48946;DHT22;34999;50.940;3.998;2023-04-24T00:12:28;9.60;99.90
48946;DHT22;34999;50.940;3.998;2023-04-24T00:14:57;9.60;99.90
48946;DHT22;34999;50.940;3.998;2023-04-24T00:17:26;9.60;99.90
48946;DHT22;34999;50.940;3.998;2023-04-24T00:19:54;9.60;99.90
48946;DHT22;34999;50.940;3.998;2023-04-24T00:22:25;9.60;99.90
48946;DHT22;34999;50.940;3.998;2023-04-24T00:24:54;9.60;99.90
48946;DHT22;34999;50.940;3.998;2023-04-24T00:27:22;9.60;99.90
48946;DHT22;34999;50.940;3.998;2023-04-24T00:29:51;9.60;99.90
48946;DHT22;34999;50.940;3.998;2023-04-24T00:32:20;9.60;99.90
48946;DHT22;34999;50.940;3.998;2023-04-24T00:34:49;9.60;99.90
48946;DHT22;34999;50.940;3.998;2023-04-24T00:37:17;9.60;99.90
48946;DHT22;34999;50.940;3.998;2023-04-24T00:39:45;9.50;99.90
48946;DHT22;34999;50.940;3.998;2023-04-24T00:42:14;9.50;99.90
48946;DHT22;34999;50.940;3.998;2023-04-24T00:44:42;9.50;99.90
48946;DHT22;34999;50.940;3.998;2023-04-24T00:47:11;9.50;99.90
48946;DHT22;34999;50.940;3.998;2023-04-24T00:49:42;9.40;99.90
48946;DHT22;34999;50.940;3.998;2023-04-24T00:52:11;9.40;99.90
48946;DHT22;34999;50.940;3.998;2023-04-24T00:54:44;9.40;99.90
48946;DHT22;34999;50.940;3.998;2023-04-24T00:57:14;9.40;99.90
48946;DHT22;34999;50.940;3.998;2023-04-24T00:59:43;9.40;99.90
48946;DHT22;34999;50.940;3.998;2023-04-24T01:05:12;9.30;99.90
48946;DHT22;34999;50.940;3.998;2023-04-24T01:07:44;9.30;99.90
48946;DHT22;34999;50.940;3.998;2023-04-24T01:10:13;9.30;99.90
48946;DHT22;34999;50.940;3.998;2023-04-24T01:12:42;9.20;99.90
48946;DHT22;34999;50.940;3.998;2023-04-24T01:15:11;9.20;99.90
48946;DHT22;34999;50.940;3.998;2023-04-24T01:17:39;9.20;99.90
48946;DHT22;34999;50.940;3.998;2023-04-24T01:20:09;9.10;99.90
48946;DHT22;34999;50.940;3.998;2023-04-24T01:22:38;9.10;99.90
48946;DHT22;34999;50.940;3.998;2023-04-24T01:25:08;9.10;99.90
48946;DHT22;34999;50.940;3.998;2023-04-24T01:27:36;9.10;99.90
48946;DHT22;34999;50.940;3.998;2023-04-24T01:30:06;9.10;99.90
48946;DHT22;34999;50.940;3.998;2023-04-24T01:32:35;9.00;99.90
48946;DHT22;34999;50.940;3.998;2023-04-24T01:35:05;9.00;99.90
48946;DHT22;34999;50.940;3.998;2023-04-24T01:37:34;8.90;99.90
48946;DHT22;34999;50.940;3.998;2023-04-24T01:40:06;8.80;99.90
48946;DHT22;34999;50.940;3.998;2023-04-24T01:42:35;8.80;99.90
48946;DHT22;34999;50.940;3.998;2023-04-24T01:45:05;8.70;99.90
48946;DHT22;34999;50.940;3.998;2023-04-24T01:47:33;8.70;99.90
48946;DHT22;34999;50.940;3.998;2023-04-24T01:50:02;8.70;99.90
48946;DHT22;34999;50.940;3.998;2023-04-24T01:52:30;8.70;99.90
48946;DHT22;34999;50.940;3.998;2023-04-24T01:55:00;8.70;99.90
48946;DHT22;34999;50.940;3.998;2023-04-24T01:57:30;8.70;99.90
48946;DHT22;34999;50.940;3.998;2023-04-24T01:59:58;8.70;99.90
48946;DHT22;34999;50.940;3.998;2023-04-24T02:02:26;8.70;99.90
48946;DHT22;34999;50.940;3.998;2023-04-24T02:04:56;8.70;99.90
48946;DHT22;34999;50.940;3.998;2023-04-24T02:07:24;8.70;99.90
48946;DHT22;34999;50.940;3.998;2023-04-24T02:09:52;8.80;99.90
48946;DHT22;34999;50.940;3.998;2023-04-24T02:12:22;8.80;99.90
48946;DHT22;34999;50.940;3.998;2023-04-24T02:14:52;8.80;99.90
48946;DHT22;34999;50.940;3.998;2023-04-24T02:17:22;8.80;99.90
48946;DHT22;34999;50.940;3.998;2023-04-24T02:19:51;8.80;99.90
48946;DHT22;34999;50.940;3.998;2023-04-24T02:22:19;8.80;99.90
48946;DHT22;34999;50.940;3.998;2023-04-24T02:24:50;8.80;99.90
48946;DHT22;34999;50.940;3.998;2023-04-24T02:27:18;8.80;99.90
48946;DHT22;34999;50.940;3.998;2023-04-24T02:29:46;8.80;99.90
48946;DHT22;34999;50.940;3.998;2023-04-24T02:32:15;8.80;99.90
48946;DHT22;34999;50.940;3.998;2023-04-24T02:34:44;8.70;99.90
48946;DHT22;34999;50.940;3.998;2023-04-24T02:37:12;8.80;99.90
48946;DHT22;34999;50.940;3.998;2023-04-24T02:39:40;8.70;99.90
48946;DHT22;34999;50.940;3.998;2023-04-24T02:42:09;8.70;99.90
48946;DHT22;34999;50.940;3.998;2023-04-24T02:44:38;8.70;99.90
48946;DHT22;34999;50.940;3.998;2023-04-24T02:47:06;8.70;99.90
48946;DHT22;34999;50.940;3.998;2023-04-24T02:49:38;8.70;99.90
48946;DHT22;34999;50.940;3.998;2023-04-24T02:52:07;8.60;99.90
48946;DHT22;34999;50.940;3.998;2023-04-24T02:54:37;8.70;99.90
48946;DHT22;34999;50.940;3.998;2023-04-24T02:57:05;8.60;99.90
48946;DHT22;34999;50.940;3.998;2023-04-24T02:59:34;8.70;99.90
48946;DHT22;34999;50.940;3.998;2023-04-24T03:02:02;8.70;99.90
48946;DHT22;34999;50.940;3.998;2023-04-24T03:04:30;8.60;99.90
48946;DHT22;34999;50.940;3.998;2023-04-24T03:07:00;8.60;99.90
48946;DHT22;34999;50.940;3.998;2023-04-24T03:09:29;8.60;99.90
48946;DHT22;34999;50.940;3.998;2023-04-24T03:11:57;8.70;99.90
48946;DHT22;34999;50.940;3.998;2023-04-24T03:14:26;8.70;99.90
48946;DHT22;34999;50.940;3.998;2023-04-24T03:16:54;8.60;99.90
48946;DHT22;34999;50.940;3.998;2023-04-24T03:19:22;8.60;99.90
48946;DHT22;34999;50.940;3.998;2023-04-24T03:21:51;8.70;99.90
48946;DHT22;34999;50.940;3.998;2023-04-24T03:24:20;8.70;99.90
48946;DHT22;34999;50.940;3.998;2023-04-24T03:26:49;8.60;99.90
48946;DHT22;34999;50.940;3.998;2023-04-24T03:29:17;8.60;99.90
48946;DHT22;34999;50.940;3.998;2023-04-24T03:31:46;8.60;99.90
48946;DHT22;34999;50.940;3.998;2023-04-24T03:34:14;8.60;99.90
48946;DHT22;34999;50.940;3.998;2023-04-24T03:36:42;8.60;99.90
48946;DHT22;34999;50.940;3.998;2023-04-24T03:39:11;8.60;99.90
48946;DHT22;34999;50.940;3.998;2023-04-24T03:41:40;8.60;99.90
48946;DHT22;34999;50.940;3.998;2023-04-24T03:44:09;8.60;99.90
48946;DHT22;34999;50.940;3.998;2023-04-24T03:46:37;8.60;99.90
48946;DHT22;34999;50.940;3.998;2023-04-24T03:49:05;8.60;99.90
48946;DHT22;34999;50.940;3.998;2023-04-24T03:51:34;8.60;99.90
48946;DHT22;34999;50.940;3.998;2023-04-24T03:54:02;8.60;99.90
48946;DHT22;34999;50.940;3.998;2023-04-24T03:56:31;8.60;99.90
48946;DHT22;34999;50.940;3.998;2023-04-24T03:59:00;8.60;99.90
48946;DHT22;34999;50.940;3.998;2023-04-24T04:01:29;8.60;99.90
48946;DHT22;34999;50.940;3.998;2023-04-24T04:03:57;8.60;99.90
48946;DHT22;34999;50.940;3.998;2023-04-24T04:06:28;8.60;99.90
48946;DHT22;34999;50.940;3.998;2023-04-24T04:08:57;8.60;99.90
48946;DHT22;34999;50.940;3.998;2023-04-24T04:11:26;8.60;99.90
48946;DHT22;34999;50.940;3.998;2023-04-24T04:13:54;8.60;99.90
48946;DHT22;34999;50.940;3.998;2023-04-24T04:16:25;8.50;99.90
48946;DHT22;34999;50.940;3.998;2023-04-24T04:18:54;8.50;99.90
48946;DHT22;34999;50.940;3.998;2023-04-24T04:21:22;8.50;99.90
48946;DHT22;34999;50.940;3.998;2023-04-24T04:23:51;8.40;99.90
48946;DHT22;34999;50.940;3.998;2023-04-24T04:26:19;8.40;99.90
48946;DHT22;34999;50.940;3.998;2023-04-24T04:28:48;8.40;99.90
48946;DHT22;34999;50.940;3.998;2023-04-24T04:31:16;8.40;99.90
48946;DHT22;34999;50.940;3.998;2023-04-24T04:33:46;8.40;99.90
48946;DHT22;34999;50.940;3.998;2023-04-24T04:36:16;8.40;99.90
48946;DHT22;34999;50.940;3.998;2023-04-24T04:38:45;8.40;99.90
48946;DHT22;34999;50.940;3.998;2023-04-24T04:41:13;8.40;99.90
48946;DHT22;34999;50.940;3.998;2023-04-24T04:43:43;8.40;99.90
48946;DHT22;34999;50.940;3.998;2023-04-24T04:46:13;8.40;99.90
48946;DHT22;34999;50.940;3.998;2023-04-24T04:48:41;8.40;99.90
48946;DHT22;34999;50.940;3.998;2023-04-24T04:51:11;8.40;99.90
48946;DHT22;34999;50.940;3.998;2023-04-24T04:53:39;8.30;99.90
48946;DHT22;34999;50.940;3.998;2023-04-24T04:56:08;8.30;99.90
48946;DHT22;34999;50.940;3.998;2023-04-24T04:58:36;8.30;99.90
48946;DHT22;34999;50.940;3.998;2023-04-24T05:01:04;8.30;99.90
48946;DHT22;34999;50.940;3.998;2023-04-24T05:03:35;8.30;99.90
48946;DHT22;34999;50.940;3.998;2023-04-24T05:06:05;8.30;99.90
48946;DHT22;34999;50.940;3.998;2023-04-24T05:08:34;8.30;99.90
48946;DHT22;34999;50.940;3.998;2023-04-24T05:11:03;8.20;99.90
48946;DHT22;34999;50.940;3.998;2023-04-24T05:13:31;8.20;99.90
48946;DHT22;34999;50.940;3.998;2023-04-24T05:16:07;8.20;99.90
48946;DHT22;34999;50.940;3.998;2023-04-24T05:18:37;8.20;99.90
48946;DHT22;34999;50.940;3.998;2023-04-24T05:21:06;8.20;99.90
48946;DHT22;34999;50.940;3.998;2023-04-24T05:23:35;8.20;99.90
48946;DHT22;34999;50.940;3.998;2023-04-24T05:26:04;8.20;99.90
48946;DHT22;34999;50.940;3.998;2023-04-24T05:28:33;8.20;99.90
48946;DHT22;34999;50.940;3.998;2023-04-24T05:31:03;8.20;99.90
48946;DHT22;34999;50.940;3.998;2023-04-24T05:33:32;8.20;99.90
48946;DHT22;34999;50.940;3.998;2023-04-24T05:36:00;8.20;99.90
48946;DHT22;34999;50.940;3.998;2023-04-24T05:38:28;8.20;99.90
48946;DHT22;34999;50.940;3.998;2023-04-24T05:40:58;8.20;99.90
48946;DHT22;34999;50.940;3.998;2023-04-24T05:43:26;8.20;99.90
48946;DHT22;34999;50.940;3.998;2023-04-24T05:45:54;8.20;99.90
48946;DHT22;34999;50.940;3.998;2023-04-24T05:48:23;8.20;99.90
48946;DHT22;34999;50.940;3.998;2023-04-24T05:50:51;8.10;99.90
48946;DHT22;34999;50.940;3.998;2023-04-24T05:53:20;8.10;99.90
48946;DHT22;34999;50.940;3.998;2023-04-24T05:55:48;8.10;99.90
48946;DHT22;34999;50.940;3.998;2023-04-24T05:58:18;8.20;99.90
48946;DHT22;34999;50.940;3.998;2023-04-24T06:00:46;8.20;99.90
48946;DHT22;34999;50.940;3.998;2023-04-24T06:03:14;8.20;99.90
48946;DHT22;34999;50.940;3.998;2023-04-24T06:05:43;8.20;99.90
48946;DHT22;34999;50.940;3.998;2023-04-24T06:08:11;8.20;99.90
48946;DHT22;34999;50.940;3.998;2023-04-24T06:10:39;8.20;99.90
48946;DHT22;34999;50.940;3.998;2023-04-24T06:13:08;8.20;99.90
48946;DHT22;34999;50.940;3.998;2023-04-24T06:15:38;8.20;99.90
48946;DHT22;34999;50.940;3.998;2023-04-24T06:18:06;8.20;99.90
48946;DHT22;34999;50.940;3.998;2023-04-24T06:20:34;8.20;99.90
48946;DHT22;34999;50.940;3.998;2023-04-24T06:23:02;8.20;99.90
48946;DHT22;34999;50.940;3.998;2023-04-24T06:25:30;8.20;99.90
48946;DHT22;34999;50.940;3.998;2023-04-24T06:27:59;8.30;99.90
48946;DHT22;34999;50.940;3.998;2023-04-24T06:30:28;8.30;99.90
48946;DHT22;34999;50.940;3.998;2023-04-24T06:32:58;8.30;99.90
48946;DHT22;34999;50.940;3.998;2023-04-24T06:35:44;8.40;99.90
48946;DHT22;34999;50.940;3.998;2023-04-24T06:38:13;8.40;99.90
48946;DHT22;34999;50.940;3.998;2023-04-24T06:40:42;8.40;99.90
48946;DHT22;34999;50.940;3.998;2023-04-24T06:43:11;8.60;99.90
48946;DHT22;34999;50.940;3.998;2023-04-24T06:45:39;8.60;99.90
48946;DHT22;34999;50.940;3.998;2023-04-24T06:48:09;8.60;99.90
48946;DHT22;34999;50.940;3.998;2023-04-24T06:50:37;8.70;99.90
48946;DHT22;34999;50.940;3.998;2023-04-24T06:53:06;8.80;99.90
48946;DHT22;34999;50.940;3.998;2023-04-24T06:55:35;8.90;99.90
48946;DHT22;34999;50.940;3.998;2023-04-24T06:58:04;8.90;99.90
48946;DHT22;34999;50.940;3.998;2023-04-24T07:00:33;9.00;99.90
48946;DHT22;34999;50.940;3.998;2023-04-24T07:03:01;9.00;99.90
48946;DHT22;34999;50.940;3.998;2023-04-24T07:05:31;9.00;99.90
48946;DHT22;34999;50.940;3.998;2023-04-24T07:08:01;9.00;99.90
48946;DHT22;34999;50.940;3.998;2023-04-24T07:10:29;8.90;99.90
48946;DHT22;34999;50.940;3.998;2023-04-24T07:12:57;8.90;99.90
48946;DHT22;34999;50.940;3.998;2023-04-24T07:15:25;8.90;99.90
48946;DHT22;34999;50.940;3.998;2023-04-24T07:17:54;8.90;99.90
48946;DHT22;34999;50.940;3.998;2023-04-24T07:20:22;8.90;99.90
48946;DHT22;34999;50.940;3.998;2023-04-24T07:22:52;8.90;99.90
48946;DHT22;34999;50.940;3.998;2023-04-24T07:25:21;9.00;99.90
48946;DHT22;34999;50.940;3.998;2023-04-24T07:27:49;9.10;99.90
48946;DHT22;34999;50.940;3.998;2023-04-24T07:30:18;9.20;99.90
48946;DHT22;34999;50.940;3.998;2023-04-24T07:32:46;9.50;99.90
48946;DHT22;34999;50.940;3.998;2023-04-24T07:35:14;9.80;99.90
48946;DHT22;34999;50.940;3.998;2023-04-24T07:37:44;9.90;99.90
48946;DHT22;34999;50.940;3.998;2023-04-24T07:40:15;10.00;99.90
48946;DHT22;34999;50.940;3.998;2023-04-24T07:42:44;9.80;99.90
48946;DHT22;34999;50.940;3.998;2023-04-24T07:45:12;9.80;99.90
48946;DHT22;34999;50.940;3.998;2023-04-24T07:47:41;9.70;99.90
48946;DHT22;34999;50.940;3.998;2023-04-24T07:50:10;9.80;99.90
48946;DHT22;34999;50.940;3.998;2023-04-24T07:52:39;9.90;99.90
48946;DHT22;34999;50.940;3.998;2023-04-24T07:55:07;10.30;99.90
48946;DHT22;34999;50.940;3.998;2023-04-24T07:57:37;10.50;99.90
48946;DHT22;34999;50.940;3.998;2023-04-24T08:00:08;10.40;99.90
48946;DHT22;34999;50.940;3.998;2023-04-24T08:02:37;10.30;99.90
48946;DHT22;34999;50.940;3.998;2023-04-24T08:05:06;10.20;99.90
48946;DHT22;34999;50.940;3.998;2023-04-24T08:07:36;10.00;99.90
48946;DHT22;34999;50.940;3.998;2023-04-24T08:10:05;10.00;99.90
48946;DHT22;34999;50.940;3.998;2023-04-24T08:12:33;9.90;99.90
48946;DHT22;34999;50.940;3.998;2023-04-24T08:15:04;9.90;99.90
48946;DHT22;34999;50.940;3.998;2023-04-24T08:17:33;10.10;99.90
48946;DHT22;34999;50.940;3.998;2023-04-24T08:20:02;10.60;99.90
48946;DHT22;34999;50.940;3.998;2023-04-24T08:22:32;11.30;99.90
48946;DHT22;34999;50.940;3.998;2023-04-24T08:25:00;12.10;99.90
48946;DHT22;34999;50.940;3.998;2023-04-24T08:27:28;12.60;99.90
48946;DHT22;34999;50.940;3.998;2023-04-24T08:29:57;13.00;99.90
48946;DHT22;34999;50.940;3.998;2023-04-24T08:32:29;13.30;99.90
48946;DHT22;34999;50.940;3.998;2023-04-24T08:34:58;14.00;99.90
48946;DHT22;34999;50.940;3.998;2023-04-24T08:37:27;14.20;99.90
48946;DHT22;34999;50.940;3.998;2023-04-24T08:39:55;14.20;99.90
48946;DHT22;34999;50.940;3.998;2023-04-24T08:42:24;13.90;99.90
48946;DHT22;34999;50.940;3.998;2023-04-24T08:44:53;13.30;99.90
48946;DHT22;34999;50.940;3.998;2023-04-24T08:47:27;12.90;99.90
48946;DHT22;34999;50.940;3.998;2023-04-24T08:49:57;13.00;99.90
48946;DHT22;34999;50.940;3.998;2023-04-24T08:52:27;13.40;99.90
48946;DHT22;34999;50.940;3.998;2023-04-24T08:54:56;13.60;99.90
48946;DHT22;34999;50.940;3.998;2023-04-24T08:57:25;13.40;99.90
48946;DHT22;34999;50.940;3.998;2023-04-24T08:59:54;12.90;99.90
48946;DHT22;34999;50.940;3.998;2023-04-24T09:02:24;12.40;99.90
48946;DHT22;34999;50.940;3.998;2023-04-24T09:04:56;11.90;99.90
48946;DHT22;34999;50.940;3.998;2023-04-24T09:07:25;11.40;99.90
48946;DHT22;34999;50.940;3.998;2023-04-24T09:09:55;11.70;99.90
48946;DHT22;34999;50.940;3.998;2023-04-24T09:12:24;12.90;99.90
48946;DHT22;34999;50.940;3.998;2023-04-24T09:14:52;13.20;99.90
48946;DHT22;34999;50.940;3.998;2023-04-24T09:17:21;12.90;99.90
48946;DHT22;34999;50.940;3.998;2023-04-24T09:19:51;13.00;99.90
48946;DHT22;34999;50.940;3.998;2023-04-24T09:22:21;12.90;99.90
48946;DHT22;34999;50.940;3.998;2023-04-24T09:25:00;13.10;99.90
48946;DHT22;34999;50.940;3.998;2023-04-24T09:27:29;14.10;99.90
48946;DHT22;34999;50.940;3.998;2023-04-24T09:29:58;14.40;99.90
48946;DHT22;34999;50.940;3.998;2023-04-24T09:32:27;14.40;99.90
48946;DHT22;34999;50.940;3.998;2023-04-24T09:35:10;13.80;99.90
48946;DHT22;34999;50.940;3.998;2023-04-24T09:37:41;13.40;99.90
48946;DHT22;34999;50.940;3.998;2023-04-24T09:40:15;13.10;99.90
48946;DHT22;34999;50.940;3.998;2023-04-24T09:42:44;13.20;99.90
48946;DHT22;34999;50.940;3.998;2023-04-24T09:45:13;13.20;99.90
48946;DHT22;34999;50.940;3.998;2023-04-24T09:47:42;13.50;99.90
48946;DHT22;34999;50.940;3.998;2023-04-24T09:50:13;13.80;99.90
48946;DHT22;34999;50.940;3.998;2023-04-24T09:52:55;14.30;99.90
48946;DHT22;34999;50.940;3.998;2023-04-24T09:55:24;14.50;99.90
48946;DHT22;34999;50.940;3.998;2023-04-24T09:57:54;14.40;99.90
48946;DHT22;34999;50.940;3.998;2023-04-24T10:00:23;14.40;99.90
48946;DHT22;34999;50.940;3.998;2023-04-24T10:02:57;14.60;99.90
48946;DHT22;34999;50.940;3.998;2023-04-24T10:05:30;14.40;99.90
48946;DHT22;34999;50.940;3.998;2023-04-24T10:08:04;14.00;99.90
48946;DHT22;34999;50.940;3.998;2023-04-24T10:10:38;13.90;99.90
48946;DHT22;34999;50.940;3.998;2023-04-24T10:13:07;13.80;99.90
48946;DHT22;34999;50.940;3.998;2023-04-24T10:15:37;14.20;99.90
48946;DHT22;34999;50.940;3.998;2023-04-24T10:18:05;14.40;99.90
48946;DHT22;34999;50.940;3.998;2023-04-24T10:20:35;14.80;99.90
48946;DHT22;34999;50.940;3.998;2023-04-24T10:23:05;14.70;99.90
48946;DHT22;34999;50.940;3.998;2023-04-24T10:25:35;14.40;99.90
48946;DHT22;34999;50.940;3.998;2023-04-24T10:28:04;14.00;99.90
48946;DHT22;34999;50.940;3.998;2023-04-24T10:30:36;13.80;99.90
48946;DHT22;34999;50.940;3.998;2023-04-24T10:33:07;13.90;99.90
48946;DHT22;34999;50.940;3.998;2023-04-24T10:35:40;14.00;99.90
48946;DHT22;34999;50.940;3.998;2023-04-24T10:38:13;13.70;99.90
48946;DHT22;34999;50.940;3.998;2023-04-24T10:40:42;13.70;99.90
48946;DHT22;34999;50.940;3.998;2023-04-24T10:43:17;13.40;99.90
48946;DHT22;34999;50.940;3.998;2023-04-24T10:46:01;13.20;99.90
48946;DHT22;34999;50.940;3.998;2023-04-24T10:48:30;13.10;99.90
48946;DHT22;34999;50.940;3.998;2023-04-24T10:50:59;12.90;99.90
48946;DHT22;34999;50.940;3.998;2023-04-24T10:53:30;13.00;99.90
48946;DHT22;34999;50.940;3.998;2023-04-24T10:56:02;13.00;99.90
48946;DHT22;34999;50.940;3.998;2023-04-24T10:58:41;12.90;99.90
48946;DHT22;34999;50.940;3.998;2023-04-24T11:01:23;13.00;99.90
48946;DHT22;34999;50.940;3.998;2023-04-24T11:03:55;13.10;99.90
48946;DHT22;34999;50.940;3.998;2023-04-24T11:06:31;13.20;99.90
48946;DHT22;34999;50.940;3.998;2023-04-24T11:09:06;13.20;99.90
48946;DHT22;34999;50.940;3.998;2023-04-24T11:11:36;12.90;99.90
48946;DHT22;34999;50.940;3.998;2023-04-24T11:14:09;13.20;99.90
48946;DHT22;34999;50.940;3.998;2023-04-24T11:16:45;14.00;99.90
48946;DHT22;34999;50.940;3.998;2023-04-24T11:19:23;14.50;99.90
48946;DHT22;34999;50.940;3.998;2023-04-24T11:21:58;14.50;99.90
48946;DHT22;34999;50.940;3.998;2023-04-24T11:24:31;14.10;99.90
48946;DHT22;34999;50.940;3.998;2023-04-24T11:27:06;13.60;99.90
48946;DHT22;34999;50.940;3.998;2023-04-24T11:29:47;13.40;99.90
48946;DHT22;34999;50.940;3.998;2023-04-24T11:32:28;13.70;99.90
48946;DHT22;34999;50.940;3.998;2023-04-24T11:34:57;13.80;99.90
48946;DHT22;34999;50.940;3.998;2023-04-24T11:37:28;13.80;99.90
48946;DHT22;34999;50.940;3.998;2023-04-24T11:39:59;13.60;99.90
48946;DHT22;34999;50.940;3.998;2023-04-24T11:42:33;13.40;99.90
48946;DHT22;34999;50.940;3.998;2023-04-24T11:45:01;13.20;99.90
48946;DHT22;34999;50.940;3.998;2023-04-24T11:47:31;13.10;99.90
48946;DHT22;34999;50.940;3.998;2023-04-24T11:50:01;13.10;99.90
48946;DHT22;34999;50.940;3.998;2023-04-24T11:52:30;13.10;99.90
48946;DHT22;34999;50.940;3.998;2023-04-24T11:55:00;13.30;99.90
48946;DHT22;34999;50.940;3.998;2023-04-24T11:57:29;13.20;99.90
48946;DHT22;34999;50.940;3.998;2023-04-24T12:00:00;13.20;99.90
48946;DHT22;34999;50.940;3.998;2023-04-24T12:02:31;13.10;99.90
48946;DHT22;34999;50.940;3.998;2023-04-24T12:04:59;13.00;99.90
48946;DHT22;34999;50.940;3.998;2023-04-24T12:07:29;13.10;99.90
48946;DHT22;34999;50.940;3.998;2023-04-24T12:09:58;13.30;99.90
48946;DHT22;34999;50.940;3.998;2023-04-24T12:12:29;13.40;99.90
48946;DHT22;34999;50.940;3.998;2023-04-24T12:14:58;13.50;99.90
48946;DHT22;34999;50.940;3.998;2023-04-24T12:17:28;13.40;99.90
48946;DHT22;34999;50.940;3.998;2023-04-24T12:19:58;13.60;99.90
48946;DHT22;34999;50.940;3.998;2023-04-24T12:22:28;13.70;99.90
48946;DHT22;34999;50.940;3.998;2023-04-24T12:25:01;13.70;99.90
48946;DHT22;34999;50.940;3.998;2023-04-24T12:27:32;13.90;99.90
48946;DHT22;34999;50.940;3.998;2023-04-24T12:30:03;14.10;99.90
48946;DHT22;34999;50.940;3.998;2023-04-24T12:32:40;14.40;99.90
48946;DHT22;34999;50.940;3.998;2023-04-24T12:35:09;15.00;99.90
48946;DHT22;34999;50.940;3.998;2023-04-24T12:37:37;15.20;99.90
48946;DHT22;34999;50.940;3.998;2023-04-24T12:40:08;15.90;99.90
48946;DHT22;34999;50.940;3.998;2023-04-24T12:42:43;16.20;99.90
48946;DHT22;34999;50.940;3.998;2023-04-24T12:45:12;16.10;99.90
48946;DHT22;34999;50.940;3.998;2023-04-24T12:47:42;15.60;99.90
48946;DHT22;34999;50.940;3.998;2023-04-24T12:50:12;15.10;99.90
48946;DHT22;34999;50.940;3.998;2023-04-24T12:52:41;15.20;99.90
48946;DHT22;34999;50.940;3.998;2023-04-24T12:55:10;15.10;99.90
48946;DHT22;34999;50.940;3.998;2023-04-24T12:57:40;15.00;99.90
48946;DHT22;34999;50.940;3.998;2023-04-24T13:00:09;14.70;99.90
48946;DHT22;34999;50.940;3.998;2023-04-24T13:02:38;14.70;99.90
48946;DHT22;34999;50.940;3.998;2023-04-24T13:05:08;14.90;99.90
48946;DHT22;34999;50.940;3.998;2023-04-24T13:07:38;14.90;99.90
48946;DHT22;34999;50.940;3.998;2023-04-24T13:10:08;15.00;99.90
48946;DHT22;34999;50.940;3.998;2023-04-24T13:12:36;15.20;99.90
48946;DHT22;34999;50.940;3.998;2023-04-24T13:15:08;15.40;99.90
48946;DHT22;34999;50.940;3.998;2023-04-24T13:17:36;15.70;99.90
48946;DHT22;34999;50.940;3.998;2023-04-24T13:20:06;15.90;99.90
48946;DHT22;34999;50.940;3.998;2023-04-24T13:22:36;15.60;99.90
48946;DHT22;34999;50.940;3.998;2023-04-24T13:25:05;15.60;99.90
48946;DHT22;34999;50.940;3.998;2023-04-24T13:27:37;15.60;99.90
48946;DHT22;34999;50.940;3.998;2023-04-24T13:30:08;15.60;99.90
48946;DHT22;34999;50.940;3.998;2023-04-24T13:32:37;15.70;99.90
48946;DHT22;34999;50.940;3.998;2023-04-24T13:35:06;15.80;99.90
48946;DHT22;34999;50.940;3.998;2023-04-24T13:37:35;16.10;99.90
48946;DHT22;34999;50.940;3.998;2023-04-24T13:40:03;16.40;99.90
48946;DHT22;34999;50.940;3.998;2023-04-24T13:42:34;16.90;99.90
48946;DHT22;34999;50.940;3.998;2023-04-24T13:45:02;16.80;99.90
48946;DHT22;34999;50.940;3.998;2023-04-24T13:47:51;16.70;99.90
48946;DHT22;34999;50.940;3.998;2023-04-24T13:50:21;16.20;99.90
48946;DHT22;34999;50.940;3.998;2023-04-24T13:52:49;15.80;99.90
48946;DHT22;34999;50.940;3.998;2023-04-24T13:55:17;16.00;99.90
48946;DHT22;34999;50.940;3.998;2023-04-24T13:57:46;16.10;99.90
48946;DHT22;34999;50.940;3.998;2023-04-24T14:00:15;16.10;99.90
48946;DHT22;34999;50.940;3.998;2023-04-24T14:02:43;16.20;99.90
48946;DHT22;34999;50.940;3.998;2023-04-24T14:05:14;16.60;99.90
48946;DHT22;34999;50.940;3.998;2023-04-24T14:07:42;16.60;99.90
48946;DHT22;34999;50.940;3.998;2023-04-24T14:10:11;16.50;99.90
48946;DHT22;34999;50.940;3.998;2023-04-24T14:12:39;16.10;99.90
48946;DHT22;34999;50.940;3.998;2023-04-24T14:15:08;15.60;99.90
48946;DHT22;34999;50.940;3.998;2023-04-24T14:17:37;15.30;99.90
48946;DHT22;34999;50.940;3.998;2023-04-24T14:20:06;15.20;99.90
48946;DHT22;34999;50.940;3.998;2023-04-24T14:22:37;15.00;99.90
48946;DHT22;34999;50.940;3.998;2023-04-24T14:25:06;14.90;99.90
48946;DHT22;34999;50.940;3.998;2023-04-24T14:27:34;14.90;99.90
48946;DHT22;34999;50.940;3.998;2023-04-24T14:30:03;14.90;99.90
48946;DHT22;34999;50.940;3.998;2023-04-24T14:32:31;15.00;99.90
48946;DHT22;34999;50.940;3.998;2023-04-24T14:35:00;15.00;99.90
48946;DHT22;34999;50.940;3.998;2023-04-24T14:37:28;14.90;99.90
48946;DHT22;34999;50.940;3.998;2023-04-24T14:39:58;14.90;99.90
48946;DHT22;34999;50.940;3.998;2023-04-24T14:42:33;14.80;99.90
48946;DHT22;34999;50.940;3.998;2023-04-24T14:45:02;14.80;99.90
48946;DHT22;34999;50.940;3.998;2023-04-24T14:47:30;14.80;99.90
48946;DHT22;34999;50.940;3.998;2023-04-24T14:49:58;14.60;99.90
48946;DHT22;34999;50.940;3.998;2023-04-24T14:52:27;14.60;99.90
48946;DHT22;34999;50.940;3.998;2023-04-24T14:54:56;14.50;99.90
48946;DHT22;34999;50.940;3.998;2023-04-24T14:57:25;14.50;99.90
48946;DHT22;34999;50.940;3.998;2023-04-24T14:59:54;14.50;99.90
48946;DHT22;34999;50.940;3.998;2023-04-24T15:02:22;14.40;99.90
48946;DHT22;34999;50.940;3.998;2023-04-24T15:04:51;14.50;99.90
48946;DHT22;34999;50.940;3.998;2023-04-24T15:07:20;14.50;99.90
48946;DHT22;34999;50.940;3.998;2023-04-24T15:09:48;14.30;99.90
48946;DHT22;34999;50.940;3.998;2023-04-24T15:12:16;14.30;99.90
48946;DHT22;34999;50.940;3.998;2023-04-24T15:14:46;14.50;99.90
48946;DHT22;34999;50.940;3.998;2023-04-24T15:17:14;14.60;99.90
48946;DHT22;34999;50.940;3.998;2023-04-24T15:19:43;14.60;99.90
48946;DHT22;34999;50.940;3.998;2023-04-24T15:22:11;14.40;99.90
48946;DHT22;34999;50.940;3.998;2023-04-24T15:24:39;14.30;99.90
48946;DHT22;34999;50.940;3.998;2023-04-24T15:27:09;14.10;99.90
48946;DHT22;34999;50.940;3.998;2023-04-24T15:29:37;14.10;99.90
48946;DHT22;34999;50.940;3.998;2023-04-24T15:32:07;14.00;99.90
48946;DHT22;34999;50.940;3.998;2023-04-24T15:34:36;13.90;99.90
48946;DHT22;34999;50.940;3.998;2023-04-24T15:37:04;13.80;99.90
48946;DHT22;34999;50.940;3.998;2023-04-24T15:39:32;13.70;99.90
48946;DHT22;34999;50.940;3.998;2023-04-24T15:42:01;13.40;99.90
48946;DHT22;34999;50.940;3.998;2023-04-24T15:44:29;13.30;99.90
48946;DHT22;34999;50.940;3.998;2023-04-24T15:47:00;13.20;99.90
48946;DHT22;34999;50.940;3.998;2023-04-24T15:49:31;13.20;99.90
48946;DHT22;34999;50.940;3.998;2023-04-24T15:51:59;13.20;99.90
48946;DHT22;34999;50.940;3.998;2023-04-24T15:54:28;13.30;99.90